logo
Rechercher aéroport 
image banner adimage banner adimage banner ad
image banner ad

LZSL - Sliac

Situé à Sliac, Slovakia

ICAO - LZSL, IATA - SLD

Données fournies par Airmate  

Information générale

Coordonnées: N48°38'17" E19°8'3"
Élévation : 1043 feet MSL.
Variation magnétique : 5.3168° East
Voir autres Aéroports à Banská Bystrica

Données opérationnelles

Special qualification required
Heure actuelle UTC:
Heure actuelle locale:
Météo
TAF: TAF LZSL 171330Z 1715/1724 VRB03KT CAVOK TEMPO 1715/1717 21006KT 9999 FEW060
Voir NOTAMs / SUP AIP / TFR affectant cet aéroport [VIEW]
Fréquences de communication: [VIEW]

Pistes:

Identifiant RWYQFULongueur (ft)Largeur (ft)SurfaceLDA (ft)
18182°7874187CON
367874187CON

Coordonnées de l'aéroport

Adresse: Sliac Slovakia

Autres services d'aviation

Écoles de pilotage

Sky Service

Sky Service

Vue satellite de LZSL